sensor_id;sensor_type;location;lat;lon;timestamp;P1;durP1;ratioP1;P2;durP2;ratioP2
27543;SDS011;17996;51.056;3.656;2023-12-04T00:00:47;17.05;;;9.35;;
27543;SDS011;17996;51.056;3.656;2023-12-04T00:03:13;23.55;;;10.02;;
27543;SDS011;17996;51.056;3.656;2023-12-04T00:05:38;20.60;;;9.82;;
27543;SDS011;17996;51.056;3.656;2023-12-04T00:08:08;19.63;;;9.68;;
27543;SDS011;17996;51.056;3.656;2023-12-04T00:10:34;22.60;;;9.73;;
27543;SDS011;17996;51.056;3.656;2023-12-04T00:13:00;21.90;;;10.00;;
27543;SDS011;17996;51.056;3.656;2023-12-04T00:15:26;16.50;;;9.13;;
27543;SDS011;17996;51.056;3.656;2023-12-04T00:17:51;20.33;;;9.60;;
27543;SDS011;17996;51.056;3.656;2023-12-04T00:20:17;20.80;;;9.57;;
27543;SDS011;17996;51.056;3.656;2023-12-04T00:22:43;17.95;;;9.27;;
27543;SDS011;17996;51.056;3.656;2023-12-04T00:25:08;19.60;;;9.23;;
27543;SDS011;17996;51.056;3.656;2023-12-04T00:27:34;18.30;;;8.98;;
27543;SDS011;17996;51.056;3.656;2023-12-04T00:30:00;19.02;;;9.38;;
27543;SDS011;17996;51.056;3.656;2023-12-04T00:32:28;17.15;;;9.32;;
27543;SDS011;17996;51.056;3.656;2023-12-04T00:34:54;14.98;;;8.27;;
27543;SDS011;17996;51.056;3.656;2023-12-04T00:37:20;20.30;;;10.05;;
27543;SDS011;17996;51.056;3.656;2023-12-04T00:39:45;17.02;;;8.70;;
27543;SDS011;17996;51.056;3.656;2023-12-04T00:42:11;18.48;;;10.05;;
27543;SDS011;17996;51.056;3.656;2023-12-04T00:44:37;18.30;;;9.60;;
27543;SDS011;17996;51.056;3.656;2023-12-04T00:47:03;15.75;;;8.65;;
27543;SDS011;17996;51.056;3.656;2023-12-04T00:49:28;14.23;;;8.20;;
27543;SDS011;17996;51.056;3.656;2023-12-04T00:51:54;18.65;;;9.15;;
27543;SDS011;17996;51.056;3.656;2023-12-04T00:54:20;21.45;;;10.23;;
27543;SDS011;17996;51.056;3.656;2023-12-04T00:56:46;21.02;;;8.95;;
27543;SDS011;17996;51.056;3.656;2023-12-04T00:59:11;17.15;;;8.20;;
27543;SDS011;17996;51.056;3.656;2023-12-04T01:01:37;16.08;;;9.10;;
27543;SDS011;17996;51.056;3.656;2023-12-04T01:04:03;14.93;;;8.13;;
27543;SDS011;17996;51.056;3.656;2023-12-04T01:06:29;17.52;;;9.35;;
27543;SDS011;17996;51.056;3.656;2023-12-04T01:08:55;15.80;;;7.70;;
27543;SDS011;17996;51.056;3.656;2023-12-04T01:11:21;13.00;;;7.53;;
27543;SDS011;17996;51.056;3.656;2023-12-04T01:13:50;17.77;;;8.15;;
27543;SDS011;17996;51.056;3.656;2023-12-04T01:16:16;16.77;;;8.43;;
27543;SDS011;17996;51.056;3.656;2023-12-04T01:18:42;16.80;;;8.20;;
27543;SDS011;17996;51.056;3.656;2023-12-04T01:21:08;14.93;;;8.13;;
27543;SDS011;17996;51.056;3.656;2023-12-04T01:23:34;16.45;;;8.77;;
27543;SDS011;17996;51.056;3.656;2023-12-04T01:26:01;16.35;;;8.02;;
27543;SDS011;17996;51.056;3.656;2023-12-04T01:28:27;13.65;;;7.60;;
27543;SDS011;17996;51.056;3.656;2023-12-04T01:30:53;14.93;;;7.78;;
27543;SDS011;17996;51.056;3.656;2023-12-04T01:33:19;15.00;;;8.38;;
27543;SDS011;17996;51.056;3.656;2023-12-04T01:35:45;15.52;;;8.23;;
27543;SDS011;17996;51.056;3.656;2023-12-04T01:38:10;18.88;;;8.85;;
27543;SDS011;17996;51.056;3.656;2023-12-04T01:40:36;16.17;;;8.55;;
27543;SDS011;17996;51.056;3.656;2023-12-04T01:43:02;14.35;;;7.68;;
27543;SDS011;17996;51.056;3.656;2023-12-04T01:45:28;15.15;;;8.18;;
27543;SDS011;17996;51.056;3.656;2023-12-04T01:47:54;14.48;;;7.47;;
27543;SDS011;17996;51.056;3.656;2023-12-04T01:50:20;15.85;;;7.75;;
27543;SDS011;17996;51.056;3.656;2023-12-04T01:52:46;13.63;;;7.65;;
27543;SDS011;17996;51.056;3.656;2023-12-04T01:55:12;15.52;;;9.13;;
27543;SDS011;17996;51.056;3.656;2023-12-04T01:57:39;17.75;;;7.60;;
27543;SDS011;17996;51.056;3.656;2023-12-04T02:00:06;16.38;;;8.00;;
27543;SDS011;17996;51.056;3.656;2023-12-04T02:02:40;14.85;;;7.45;;
27543;SDS011;17996;51.056;3.656;2023-12-04T02:05:09;12.75;;;8.00;;
27543;SDS011;17996;51.056;3.656;2023-12-04T02:07:37;14.23;;;7.63;;
27543;SDS011;17996;51.056;3.656;2023-12-04T02:10:06;14.85;;;7.95;;
27543;SDS011;17996;51.056;3.656;2023-12-04T02:12:32;13.43;;;7.18;;
27543;SDS011;17996;51.056;3.656;2023-12-04T02:14:58;15.15;;;7.65;;
27543;SDS011;17996;51.056;3.656;2023-12-04T02:17:24;12.23;;;6.93;;
27543;SDS011;17996;51.056;3.656;2023-12-04T02:19:51;13.55;;;6.68;;
27543;SDS011;17996;51.056;3.656;2023-12-04T02:22:18;12.85;;;6.95;;
27543;SDS011;17996;51.056;3.656;2023-12-04T02:24:45;15.65;;;7.30;;
27543;SDS011;17996;51.056;3.656;2023-12-04T02:27:18;13.70;;;7.65;;
27543;SDS011;17996;51.056;3.656;2023-12-04T02:30:08;14.40;;;7.70;;
27543;SDS011;17996;51.056;3.656;2023-12-04T02:32:38;15.02;;;6.90;;
27543;SDS011;17996;51.056;3.656;2023-12-04T02:35:09;12.25;;;7.50;;
27543;SDS011;17996;51.056;3.656;2023-12-04T02:37:36;13.05;;;7.63;;
27543;SDS011;17996;51.056;3.656;2023-12-04T02:40:03;13.45;;;6.97;;
27543;SDS011;17996;51.056;3.656;2023-12-04T02:42:31;11.20;;;7.03;;
27543;SDS011;17996;51.056;3.656;2023-12-04T02:44:57;13.57;;;7.78;;
27543;SDS011;17996;51.056;3.656;2023-12-04T02:47:24;13.23;;;7.50;;
27543;SDS011;17996;51.056;3.656;2023-12-04T02:49:50;11.63;;;6.93;;
27543;SDS011;17996;51.056;3.656;2023-12-04T02:52:16;13.60;;;6.35;;
27543;SDS011;17996;51.056;3.656;2023-12-04T02:54:42;16.33;;;7.93;;
27543;SDS011;17996;51.056;3.656;2023-12-04T02:57:07;13.23;;;7.55;;
27543;SDS011;17996;51.056;3.656;2023-12-04T02:59:33;15.98;;;7.28;;
27543;SDS011;17996;51.056;3.656;2023-12-04T03:01:59;16.48;;;7.90;;
27543;SDS011;17996;51.056;3.656;2023-12-04T03:04:26;14.98;;;7.18;;
27543;SDS011;17996;51.056;3.656;2023-12-04T03:06:53;12.73;;;7.28;;
27543;SDS011;17996;51.056;3.656;2023-12-04T03:09:19;14.38;;;8.05;;
27543;SDS011;17996;51.056;3.656;2023-12-04T03:11:44;16.65;;;8.30;;
27543;SDS011;17996;51.056;3.656;2023-12-04T03:14:10;13.27;;;7.10;;
27543;SDS011;17996;51.056;3.656;2023-12-04T03:16:36;15.20;;;7.00;;
27543;SDS011;17996;51.056;3.656;2023-12-04T03:19:02;14.55;;;7.18;;
27543;SDS011;17996;51.056;3.656;2023-12-04T03:21:28;16.80;;;7.97;;
27543;SDS011;17996;51.056;3.656;2023-12-04T03:23:54;12.57;;;7.03;;
27543;SDS011;17996;51.056;3.656;2023-12-04T03:26:20;11.40;;;6.32;;
27543;SDS011;17996;51.056;3.656;2023-12-04T03:28:46;15.90;;;7.22;;
27543;SDS011;17996;51.056;3.656;2023-12-04T03:31:11;15.32;;;7.57;;
27543;SDS011;17996;51.056;3.656;2023-12-04T03:33:37;14.65;;;7.13;;
27543;SDS011;17996;51.056;3.656;2023-12-04T03:36:03;13.50;;;7.25;;
27543;SDS011;17996;51.056;3.656;2023-12-04T03:38:29;11.65;;;6.60;;
27543;SDS011;17996;51.056;3.656;2023-12-04T03:40:55;17.35;;;8.10;;
27543;SDS011;17996;51.056;3.656;2023-12-04T03:43:21;12.02;;;6.25;;
27543;SDS011;17996;51.056;3.656;2023-12-04T03:45:47;10.63;;;6.18;;
27543;SDS011;17996;51.056;3.656;2023-12-04T03:48:12;12.65;;;6.68;;
27543;SDS011;17996;51.056;3.656;2023-12-04T03:50:38;9.93;;;5.85;;
27543;SDS011;17996;51.056;3.656;2023-12-04T03:53:04;11.52;;;6.75;;
27543;SDS011;17996;51.056;3.656;2023-12-04T03:55:30;15.48;;;7.63;;
27543;SDS011;17996;51.056;3.656;2023-12-04T03:57:56;10.88;;;6.63;;
27543;SDS011;17996;51.056;3.656;2023-12-04T04:00:23;13.27;;;7.35;;
27543;SDS011;17996;51.056;3.656;2023-12-04T04:02:48;12.65;;;6.50;;
27543;SDS011;17996;51.056;3.656;2023-12-04T04:05:15;11.40;;;6.38;;
27543;SDS011;17996;51.056;3.656;2023-12-04T04:07:40;12.60;;;6.30;;
27543;SDS011;17996;51.056;3.656;2023-12-04T04:10:06;14.45;;;6.25;;
27543;SDS011;17996;51.056;3.656;2023-12-04T04:12:33;12.15;;;6.47;;
27543;SDS011;17996;51.056;3.656;2023-12-04T04:14:59;9.85;;;5.55;;
27543;SDS011;17996;51.056;3.656;2023-12-04T04:17:25;11.68;;;6.05;;
27543;SDS011;17996;51.056;3.656;2023-12-04T04:19:54;12.20;;;6.43;;
27543;SDS011;17996;51.056;3.656;2023-12-04T04:22:20;11.85;;;6.38;;
27543;SDS011;17996;51.056;3.656;2023-12-04T04:24:46;10.70;;;5.88;;
27543;SDS011;17996;51.056;3.656;2023-12-04T04:27:13;13.07;;;6.63;;
27543;SDS011;17996;51.056;3.656;2023-12-04T04:29:38;11.35;;;6.55;;
27543;SDS011;17996;51.056;3.656;2023-12-04T04:32:04;11.68;;;6.30;;
27543;SDS011;17996;51.056;3.656;2023-12-04T04:34:31;11.55;;;6.55;;
27543;SDS011;17996;51.056;3.656;2023-12-04T04:36:56;13.52;;;6.95;;
27543;SDS011;17996;51.056;3.656;2023-12-04T04:39:22;11.40;;;6.18;;
27543;SDS011;17996;51.056;3.656;2023-12-04T04:41:48;8.68;;;5.93;;
27543;SDS011;17996;51.056;3.656;2023-12-04T04:44:14;10.45;;;6.25;;
27543;SDS011;17996;51.056;3.656;2023-12-04T04:46:39;10.73;;;6.65;;
27543;SDS011;17996;51.056;3.656;2023-12-04T04:49:05;15.68;;;7.22;;
27543;SDS011;17996;51.056;3.656;2023-12-04T04:51:34;10.00;;;5.80;;
27543;SDS011;17996;51.056;3.656;2023-12-04T04:54:00;12.40;;;6.60;;
27543;SDS011;17996;51.056;3.656;2023-12-04T04:56:26;11.90;;;6.35;;
27543;SDS011;17996;51.056;3.656;2023-12-04T04:58:52;13.23;;;6.75;;
27543;SDS011;17996;51.056;3.656;2023-12-04T05:01:18;12.23;;;6.53;;
27543;SDS011;17996;51.056;3.656;2023-12-04T05:03:44;11.98;;;6.40;;
27543;SDS011;17996;51.056;3.656;2023-12-04T05:06:09;14.95;;;6.78;;
27543;SDS011;17996;51.056;3.656;2023-12-04T05:08:35;11.65;;;6.20;;
27543;SDS011;17996;51.056;3.656;2023-12-04T05:11:02;11.68;;;6.18;;
27543;SDS011;17996;51.056;3.656;2023-12-04T05:13:29;11.30;;;6.50;;
27543;SDS011;17996;51.056;3.656;2023-12-04T05:15:55;12.00;;;6.25;;
27543;SDS011;17996;51.056;3.656;2023-12-04T05:18:21;12.88;;;6.65;;
27543;SDS011;17996;51.056;3.656;2023-12-04T05:20:47;11.57;;;6.88;;
27543;SDS011;17996;51.056;3.656;2023-12-04T05:23:12;13.95;;;6.53;;
27543;SDS011;17996;51.056;3.656;2023-12-04T05:25:38;12.73;;;6.10;;
27543;SDS011;17996;51.056;3.656;2023-12-04T05:28:04;14.27;;;6.55;;
27543;SDS011;17996;51.056;3.656;2023-12-04T05:30:30;12.57;;;6.18;;
27543;SDS011;17996;51.056;3.656;2023-12-04T05:32:56;12.07;;;7.47;;
27543;SDS011;17996;51.056;3.656;2023-12-04T05:35:21;14.38;;;6.93;;
27543;SDS011;17996;51.056;3.656;2023-12-04T05:37:47;13.05;;;7.30;;
27543;SDS011;17996;51.056;3.656;2023-12-04T05:40:13;11.10;;;6.55;;
27543;SDS011;17996;51.056;3.656;2023-12-04T05:42:39;11.73;;;5.85;;
27543;SDS011;17996;51.056;3.656;2023-12-04T05:45:05;10.20;;;5.60;;
27543;SDS011;17996;51.056;3.656;2023-12-04T05:47:32;13.52;;;5.57;;
27543;SDS011;17996;51.056;3.656;2023-12-04T05:49:59;9.23;;;5.18;;
27543;SDS011;17996;51.056;3.656;2023-12-04T05:52:25;11.73;;;5.90;;
27543;SDS011;17996;51.056;3.656;2023-12-04T05:54:51;9.05;;;5.47;;
27543;SDS011;17996;51.056;3.656;2023-12-04T05:57:17;10.90;;;5.93;;
27543;SDS011;17996;51.056;3.656;2023-12-04T05:59:42;13.48;;;6.72;;
27543;SDS011;17996;51.056;3.656;2023-12-04T06:02:09;10.85;;;5.88;;
27543;SDS011;17996;51.056;3.656;2023-12-04T06:04:34;10.57;;;6.47;;
27543;SDS011;17996;51.056;3.656;2023-12-04T06:07:00;12.82;;;6.50;;
27543;SDS011;17996;51.056;3.656;2023-12-04T06:09:26;12.02;;;5.93;;
27543;SDS011;17996;51.056;3.656;2023-12-04T06:11:52;10.80;;;5.95;;
27543;SDS011;17996;51.056;3.656;2023-12-04T06:14:17;11.10;;;5.47;;
27543;SDS011;17996;51.056;3.656;2023-12-04T06:16:43;10.57;;;5.68;;
27543;SDS011;17996;51.056;3.656;2023-12-04T06:19:09;10.95;;;5.75;;
27543;SDS011;17996;51.056;3.656;2023-12-04T06:21:35;9.82;;;5.38;;
27543;SDS011;17996;51.056;3.656;2023-12-04T06:24:00;10.25;;;5.18;;
27543;SDS011;17996;51.056;3.656;2023-12-04T06:26:26;11.88;;;5.72;;
27543;SDS011;17996;51.056;3.656;2023-12-04T06:28:53;9.70;;;5.35;;
27543;SDS011;17996;51.056;3.656;2023-12-04T06:31:19;10.00;;;5.10;;
27543;SDS011;17996;51.056;3.656;2023-12-04T06:33:45;14.02;;;5.55;;
27543;SDS011;17996;51.056;3.656;2023-12-04T06:36:11;8.60;;;5.35;;
27543;SDS011;17996;51.056;3.656;2023-12-04T06:38:39;11.25;;;5.32;;
27543;SDS011;17996;51.056;3.656;2023-12-04T06:41:06;12.88;;;5.93;;
27543;SDS011;17996;51.056;3.656;2023-12-04T06:43:33;9.23;;;5.55;;
27543;SDS011;17996;51.056;3.656;2023-12-04T06:45:59;13.00;;;5.90;;
27543;SDS011;17996;51.056;3.656;2023-12-04T06:48:25;9.32;;;5.00;;
27543;SDS011;17996;51.056;3.656;2023-12-04T06:50:51;10.05;;;5.97;;
27543;SDS011;17996;51.056;3.656;2023-12-04T06:53:16;11.40;;;5.05;;
27543;SDS011;17996;51.056;3.656;2023-12-04T06:55:42;8.52;;;4.97;;
27543;SDS011;17996;51.056;3.656;2023-12-04T06:58:09;9.75;;;5.20;;
27543;SDS011;17996;51.056;3.656;2023-12-04T07:00:35;14.00;;;5.95;;
27543;SDS011;17996;51.056;3.656;2023-12-04T07:03:01;10.60;;;5.88;;
27543;SDS011;17996;51.056;3.656;2023-12-04T07:05:26;15.60;;;6.35;;
27543;SDS011;17996;51.056;3.656;2023-12-04T07:07:52;13.43;;;6.00;;
27543;SDS011;17996;51.056;3.656;2023-12-04T07:10:18;10.45;;;5.70;;
27543;SDS011;17996;51.056;3.656;2023-12-04T07:12:44;10.88;;;6.40;;
27543;SDS011;17996;51.056;3.656;2023-12-04T07:15:10;9.75;;;6.05;;
27543;SDS011;17996;51.056;3.656;2023-12-04T07:17:37;10.93;;;6.63;;
27543;SDS011;17996;51.056;3.656;2023-12-04T07:20:03;18.50;;;6.55;;
27543;SDS011;17996;51.056;3.656;2023-12-04T07:22:32;11.65;;;6.78;;
27543;SDS011;17996;51.056;3.656;2023-12-04T07:24:58;13.30;;;6.82;;
27543;SDS011;17996;51.056;3.656;2023-12-04T07:27:24;49.03;;;9.75;;
27543;SDS011;17996;51.056;3.656;2023-12-04T07:29:50;20.10;;;7.53;;
27543;SDS011;17996;51.056;3.656;2023-12-04T07:32:16;9.60;;;5.88;;
27543;SDS011;17996;51.056;3.656;2023-12-04T07:34:45;13.55;;;6.80;;
27543;SDS011;17996;51.056;3.656;2023-12-04T07:37:10;12.02;;;6.40;;
27543;SDS011;17996;51.056;3.656;2023-12-04T07:39:36;13.00;;;6.15;;
27543;SDS011;17996;51.056;3.656;2023-12-04T07:42:02;16.10;;;7.72;;
27543;SDS011;17996;51.056;3.656;2023-12-04T07:44:28;14.20;;;6.82;;
27543;SDS011;17996;51.056;3.656;2023-12-04T07:46:54;11.90;;;6.63;;
27543;SDS011;17996;51.056;3.656;2023-12-04T07:49:20;10.90;;;6.25;;
27543;SDS011;17996;51.056;3.656;2023-12-04T07:51:45;14.35;;;7.10;;
27543;SDS011;17996;51.056;3.656;2023-12-04T07:54:11;13.52;;;7.05;;
27543;SDS011;17996;51.056;3.656;2023-12-04T07:56:37;14.05;;;7.30;;
27543;SDS011;17996;51.056;3.656;2023-12-04T07:59:03;9.65;;;6.28;;
27543;SDS011;17996;51.056;3.656;2023-12-04T08:01:28;13.52;;;7.03;;
27543;SDS011;17996;51.056;3.656;2023-12-04T08:03:54;12.75;;;6.47;;
27543;SDS011;17996;51.056;3.656;2023-12-04T08:06:20;11.48;;;6.38;;
27543;SDS011;17996;51.056;3.656;2023-12-04T08:08:45;13.27;;;7.20;;
27543;SDS011;17996;51.056;3.656;2023-12-04T08:11:11;13.52;;;7.57;;
27543;SDS011;17996;51.056;3.656;2023-12-04T08:13:38;10.27;;;5.85;;
27543;SDS011;17996;51.056;3.656;2023-12-04T08:16:04;13.35;;;8.23;;
27543;SDS011;17996;51.056;3.656;2023-12-04T08:18:30;13.40;;;7.10;;
27543;SDS011;17996;51.056;3.656;2023-12-04T08:20:59;13.90;;;7.07;;
27543;SDS011;17996;51.056;3.656;2023-12-04T08:23:25;11.98;;;7.05;;
27543;SDS011;17996;51.056;3.656;2023-12-04T08:25:52;14.20;;;6.57;;
27543;SDS011;17996;51.056;3.656;2023-12-04T08:28:18;10.10;;;6.82;;
27543;SDS011;17996;51.056;3.656;2023-12-04T08:30:45;18.63;;;7.95;;
27543;SDS011;17996;51.056;3.656;2023-12-04T08:33:10;15.68;;;6.95;;
27543;SDS011;17996;51.056;3.656;2023-12-04T08:35:36;9.15;;;5.72;;
27543;SDS011;17996;51.056;3.656;2023-12-04T08:38:02;9.57;;;6.38;;
27543;SDS011;17996;51.056;3.656;2023-12-04T08:40:27;13.45;;;6.85;;
27543;SDS011;17996;51.056;3.656;2023-12-04T08:42:53;12.15;;;8.10;;
27543;SDS011;17996;51.056;3.656;2023-12-04T08:45:19;10.13;;;6.60;;
27543;SDS011;17996;51.056;3.656;2023-12-04T08:47:45;11.73;;;7.15;;
27543;SDS011;17996;51.056;3.656;2023-12-04T08:50:11;9.77;;;6.18;;
27543;SDS011;17996;51.056;3.656;2023-12-04T08:52:36;19.02;;;7.13;;
27543;SDS011;17996;51.056;3.656;2023-12-04T08:55:03;18.45;;;8.48;;
27543;SDS011;17996;51.056;3.656;2023-12-04T08:57:31;14.18;;;7.28;;
27543;SDS011;17996;51.056;3.656;2023-12-04T08:59:56;13.10;;;7.20;;
27543;SDS011;17996;51.056;3.656;2023-12-04T09:02:22;12.20;;;6.93;;
27543;SDS011;17996;51.056;3.656;2023-12-04T09:04:48;13.73;;;6.70;;
27543;SDS011;17996;51.056;3.656;2023-12-04T09:07:14;11.43;;;6.75;;
27543;SDS011;17996;51.056;3.656;2023-12-04T09:09:40;14.82;;;7.30;;
27543;SDS011;17996;51.056;3.656;2023-12-04T09:12:05;18.65;;;7.82;;
27543;SDS011;17996;51.056;3.656;2023-12-04T09:14:32;12.32;;;7.70;;
27543;SDS011;17996;51.056;3.656;2023-12-04T09:16:58;10.43;;;6.13;;
27543;SDS011;17996;51.056;3.656;2023-12-04T09:19:24;12.55;;;7.05;;
27543;SDS011;17996;51.056;3.656;2023-12-04T09:21:49;11.63;;;6.60;;
27543;SDS011;17996;51.056;3.656;2023-12-04T09:24:15;12.10;;;6.80;;
27543;SDS011;17996;51.056;3.656;2023-12-04T09:26:42;11.15;;;6.68;;
27543;SDS011;17996;51.056;3.656;2023-12-04T09:29:08;9.38;;;6.10;;
27543;SDS011;17996;51.056;3.656;2023-12-04T09:31:37;10.27;;;6.78;;
27543;SDS011;17996;51.056;3.656;2023-12-04T09:34:03;12.75;;;6.93;;
27543;SDS011;17996;51.056;3.656;2023-12-04T09:36:29;12.68;;;6.78;;
27543;SDS011;17996;51.056;3.656;2023-12-04T09:38:55;15.18;;;6.40;;
27543;SDS011;17996;51.056;3.656;2023-12-04T09:41:20;11.60;;;6.93;;
27543;SDS011;17996;51.056;3.656;2023-12-04T09:43:47;29.95;;;9.68;;
27543;SDS011;17996;51.056;3.656;2023-12-04T09:46:13;13.20;;;7.20;;
27543;SDS011;17996;51.056;3.656;2023-12-04T09:48:41;11.57;;;7.13;;
27543;SDS011;17996;51.056;3.656;2023-12-04T09:51:08;10.77;;;6.50;;
27543;SDS011;17996;51.056;3.656;2023-12-04T09:53:35;14.07;;;7.40;;
27543;SDS011;17996;51.056;3.656;2023-12-04T09:56:02;11.90;;;6.90;;
27543;SDS011;17996;51.056;3.656;2023-12-04T09:58:29;11.80;;;6.97;;
27543;SDS011;17996;51.056;3.656;2023-12-04T10:00:57;11.95;;;5.57;;
27543;SDS011;17996;51.056;3.656;2023-12-04T10:03:26;10.02;;;6.13;;
27543;SDS011;17996;51.056;3.656;2023-12-04T10:05:52;10.02;;;6.20;;
27543;SDS011;17996;51.056;3.656;2023-12-04T10:08:19;10.68;;;6.85;;
27543;SDS011;17996;51.056;3.656;2023-12-04T10:10:44;10.90;;;6.60;;
27543;SDS011;17996;51.056;3.656;2023-12-04T10:13:10;15.70;;;6.82;;
27543;SDS011;17996;51.056;3.656;2023-12-04T10:15:50;11.65;;;7.32;;
27543;SDS011;17996;51.056;3.656;2023-12-04T10:20:56;10.00;;;6.40;;
27543;SDS011;17996;51.056;3.656;2023-12-04T10:23:22;11.32;;;6.43;;
27543;SDS011;17996;51.056;3.656;2023-12-04T10:26:01;12.05;;;7.32;;
27543;SDS011;17996;51.056;3.656;2023-12-04T10:28:27;9.43;;;6.35;;
27543;SDS011;17996;51.056;3.656;2023-12-04T10:30:53;10.93;;;6.93;;
27543;SDS011;17996;51.056;3.656;2023-12-04T10:33:20;13.23;;;7.43;;
27543;SDS011;17996;51.056;3.656;2023-12-04T10:35:46;16.27;;;7.03;;
27543;SDS011;17996;51.056;3.656;2023-12-04T10:38:12;9.57;;;6.53;;
27543;SDS011;17996;51.056;3.656;2023-12-04T10:40:39;12.70;;;7.10;;
27543;SDS011;17996;51.056;3.656;2023-12-04T10:43:12;13.25;;;6.82;;
27543;SDS011;17996;51.056;3.656;2023-12-04T10:45:45;12.38;;;6.93;;
27543;SDS011;17996;51.056;3.656;2023-12-04T10:48:12;21.83;;;7.35;;
27543;SDS011;17996;51.056;3.656;2023-12-04T10:50:41;12.25;;;6.53;;
27543;SDS011;17996;51.056;3.656;2023-12-04T10:53:08;16.40;;;7.63;;
27543;SDS011;17996;51.056;3.656;2023-12-04T10:55:36;15.30;;;6.28;;
27543;SDS011;17996;51.056;3.656;2023-12-04T10:58:04;12.60;;;7.00;;
27543;SDS011;17996;51.056;3.656;2023-12-04T11:00:39;12.23;;;6.93;;
27543;SDS011;17996;51.056;3.656;2023-12-04T11:03:15;9.23;;;6.03;;
27543;SDS011;17996;51.056;3.656;2023-12-04T11:05:49;23.27;;;8.18;;
27543;SDS011;17996;51.056;3.656;2023-12-04T11:08:20;17.00;;;8.13;;
27543;SDS011;17996;51.056;3.656;2023-12-04T11:11:04;14.07;;;7.65;;
27543;SDS011;17996;51.056;3.656;2023-12-04T11:16:22;14.10;;;6.80;;
27543;SDS011;17996;51.056;3.656;2023-12-04T11:19:10;17.58;;;7.88;;
27543;SDS011;17996;51.056;3.656;2023-12-04T11:21:42;13.43;;;7.78;;
27543;SDS011;17996;51.056;3.656;2023-12-04T11:24:10;14.35;;;7.28;;
27543;SDS011;17996;51.056;3.656;2023-12-04T11:26:40;15.95;;;8.07;;
27543;SDS011;17996;51.056;3.656;2023-12-04T11:29:07;21.33;;;8.15;;
27543;SDS011;17996;51.056;3.656;2023-12-04T11:31:35;13.32;;;7.60;;
27543;SDS011;17996;51.056;3.656;2023-12-04T11:34:02;14.38;;;6.88;;
27543;SDS011;17996;51.056;3.656;2023-12-04T11:36:28;12.77;;;6.63;;
27543;SDS011;17996;51.056;3.656;2023-12-04T11:38:54;11.38;;;6.32;;
27543;SDS011;17996;51.056;3.656;2023-12-04T11:41:22;12.32;;;6.53;;
27543;SDS011;17996;51.056;3.656;2023-12-04T11:43:49;9.65;;;6.28;;
27543;SDS011;17996;51.056;3.656;2023-12-04T11:46:19;13.05;;;6.45;;
27543;SDS011;17996;51.056;3.656;2023-12-04T11:48:48;12.63;;;6.47;;
27543;SDS011;17996;51.056;3.656;2023-12-04T11:54:09;10.68;;;6.47;;
27543;SDS011;17996;51.056;3.656;2023-12-04T11:56:35;11.95;;;6.30;;
27543;SDS011;17996;51.056;3.656;2023-12-04T11:59:04;11.95;;;6.57;;
27543;SDS011;17996;51.056;3.656;2023-12-04T12:01:37;11.10;;;6.60;;
27543;SDS011;17996;51.056;3.656;2023-12-04T12:04:06;11.77;;;6.68;;
27543;SDS011;17996;51.056;3.656;2023-12-04T12:06:32;10.88;;;6.28;;
27543;SDS011;17996;51.056;3.656;2023-12-04T12:08:58;9.43;;;5.88;;
27543;SDS011;17996;51.056;3.656;2023-12-04T12:11:24;10.52;;;5.80;;
27543;SDS011;17996;51.056;3.656;2023-12-04T12:13:52;10.05;;;5.75;;
27543;SDS011;17996;51.056;3.656;2023-12-04T12:16:18;9.13;;;6.22;;
27543;SDS011;17996;51.056;3.656;2023-12-04T12:18:44;13.60;;;6.50;;
27543;SDS011;17996;51.056;3.656;2023-12-04T12:21:10;9.32;;;5.75;;
27543;SDS011;17996;51.056;3.656;2023-12-04T12:23:37;13.38;;;7.03;;
27543;SDS011;17996;51.056;3.656;2023-12-04T12:26:03;12.77;;;5.75;;
27543;SDS011;17996;51.056;3.656;2023-12-04T12:28:29;9.82;;;6.15;;
27543;SDS011;17996;51.056;3.656;2023-12-04T12:30:55;9.50;;;5.35;;
27543;SDS011;17996;51.056;3.656;2023-12-04T12:33:21;11.20;;;6.40;;
27543;SDS011;17996;51.056;3.656;2023-12-04T12:35:48;18.63;;;6.47;;
27543;SDS011;17996;51.056;3.656;2023-12-04T12:38:15;7.32;;;5.25;;
27543;SDS011;17996;51.056;3.656;2023-12-04T12:40:41;11.75;;;4.70;;
27543;SDS011;17996;51.056;3.656;2023-12-04T12:43:07;9.55;;;4.95;;
27543;SDS011;17996;51.056;3.656;2023-12-04T12:45:43;11.27;;;5.63;;
27543;SDS011;17996;51.056;3.656;2023-12-04T12:48:13;5.90;;;4.43;;
27543;SDS011;17996;51.056;3.656;2023-12-04T12:50:39;8.13;;;4.90;;
27543;SDS011;17996;51.056;3.656;2023-12-04T12:53:10;9.93;;;5.05;;
27543;SDS011;17996;51.056;3.656;2023-12-04T12:55:40;9.48;;;5.50;;
27543;SDS011;17996;51.056;3.656;2023-12-04T12:58:06;9.80;;;4.93;;
27543;SDS011;17996;51.056;3.656;2023-12-04T13:00:34;15.45;;;5.22;;
27543;SDS011;17996;51.056;3.656;2023-12-04T13:03:00;9.30;;;4.50;;
27543;SDS011;17996;51.056;3.656;2023-12-04T13:05:26;9.05;;;4.93;;
27543;SDS011;17996;51.056;3.656;2023-12-04T13:07:52;7.15;;;4.50;;
27543;SDS011;17996;51.056;3.656;2023-12-04T13:10:18;8.57;;;4.75;;
27543;SDS011;17996;51.056;3.656;2023-12-04T13:12:43;8.85;;;5.65;;
27543;SDS011;17996;51.056;3.656;2023-12-04T13:15:09;7.13;;;4.88;;
27543;SDS011;17996;51.056;3.656;2023-12-04T13:17:36;10.35;;;4.88;;
27543;SDS011;17996;51.056;3.656;2023-12-04T13:20:01;8.32;;;5.22;;
27543;SDS011;17996;51.056;3.656;2023-12-04T13:22:29;8.30;;;5.00;;
27543;SDS011;17996;51.056;3.656;2023-12-04T13:24:57;10.02;;;5.55;;
27543;SDS011;17996;51.056;3.656;2023-12-04T13:27:23;19.20;;;6.00;;
27543;SDS011;17996;51.056;3.656;2023-12-04T13:29:49;10.02;;;4.18;;
27543;SDS011;17996;51.056;3.656;2023-12-04T13:32:16;11.55;;;4.63;;
27543;SDS011;17996;51.056;3.656;2023-12-04T13:34:42;8.48;;;4.25;;
27543;SDS011;17996;51.056;3.656;2023-12-04T13:37:08;9.93;;;4.97;;
27543;SDS011;17996;51.056;3.656;2023-12-04T13:39:34;12.10;;;5.38;;
27543;SDS011;17996;51.056;3.656;2023-12-04T13:42:26;7.32;;;4.72;;
27543;SDS011;17996;51.056;3.656;2023-12-04T13:45:11;14.30;;;5.10;;
27543;SDS011;17996;51.056;3.656;2023-12-04T13:47:39;8.70;;;5.45;;
27543;SDS011;17996;51.056;3.656;2023-12-04T13:50:06;7.05;;;4.57;;
27543;SDS011;17996;51.056;3.656;2023-12-04T13:52:35;12.23;;;5.03;;
27543;SDS011;17996;51.056;3.656;2023-12-04T13:55:01;7.55;;;4.68;;
27543;SDS011;17996;51.056;3.656;2023-12-04T13:57:39;15.02;;;6.30;;
27543;SDS011;17996;51.056;3.656;2023-12-04T14:00:23;18.00;;;5.90;;
27543;SDS011;17996;51.056;3.656;2023-12-04T14:02:49;24.75;;;7.07;;
27543;SDS011;17996;51.056;3.656;2023-12-04T14:05:18;21.92;;;5.50;;
27543;SDS011;17996;51.056;3.656;2023-12-04T14:07:47;11.02;;;5.68;;
27543;SDS011;17996;51.056;3.656;2023-12-04T14:10:13;18.27;;;6.93;;
27543;SDS011;17996;51.056;3.656;2023-12-04T14:12:40;21.17;;;7.63;;
27543;SDS011;17996;51.056;3.656;2023-12-04T14:15:06;11.43;;;5.90;;
27543;SDS011;17996;51.056;3.656;2023-12-04T14:17:32;14.82;;;6.10;;
27543;SDS011;17996;51.056;3.656;2023-12-04T14:19:58;9.90;;;6.28;;
27543;SDS011;17996;51.056;3.656;2023-12-04T14:22:24;17.15;;;6.53;;
27543;SDS011;17996;51.056;3.656;2023-12-04T14:24:50;11.07;;;6.10;;
27543;SDS011;17996;51.056;3.656;2023-12-04T14:27:16;12.77;;;6.22;;
27543;SDS011;17996;51.056;3.656;2023-12-04T14:29:43;13.70;;;7.63;;
27543;SDS011;17996;51.056;3.656;2023-12-04T14:32:09;13.48;;;6.68;;
27543;SDS011;17996;51.056;3.656;2023-12-04T14:34:35;10.65;;;6.78;;
27543;SDS011;17996;51.056;3.656;2023-12-04T14:37:01;10.45;;;6.03;;
27543;SDS011;17996;51.056;3.656;2023-12-04T14:39:27;11.05;;;6.93;;
27543;SDS011;17996;51.056;3.656;2023-12-04T14:41:53;14.55;;;7.03;;